Dierks, Arkansas
Current Conditions -  °F | °C
As of 9:53 PM on Sunday 23 Nov 2014 (Local Time) from KDEQ Reporting Station
Light Rain Light Rain  
Wind Chill: 58°   Ceiling: Unl
Heat Index: 58°   Visibility: 10mi
Dew Point: 47°   Wind: 25mph
Humidity: 67%   Direction: 270°W
Pressure: 29.53"   Gusts: 39mph
Location:  34.12°N, 94.02°W
Report Text: KDEQ 240353Z AUTO 27022G34KT 10SM -RA CLR 14/08 A2953 RMK AO2 PK WND 27034/0346 RAB39 SLP995 P0000 T01440083
Loading
Personal Weather Stations






























Interactive Weather Map New forecast layout! Learn more

10-Day Weather Forecast

Advertisements
Track Severe Weather on mobile